TVC weather

Cherry Capital Airport
Traverse City, Michigan, United States

Public forecast

Using degrees Fahrenheit for public forecast. Weather courtesy of forecast.io.

Current aviation weather report (METAR) for Cherry Capital Airport

Retrieved 2019/10/14 21:53 UTC (36 minutes ago):

KTVC 142153Z 25011KT 10SM BKN043 08/00 A3000 RMK AO2 SLP163 T00830000

Aviation forecast (TAF) for Cherry Capital Airport

Retrieved 2019/10/14 18:27 UTC (4 hours ago):

TAF KTVC 141724Z 1418/1518 25010G19KT P6SM VCSH BKN035 TEMPO 1418/1421 -SHRA FM142200 25008KT P6SM SCT040 FM150100 VRB03KT P6SM SCT040 FM151200 16006KT P6SM BKN150 FM151500 15009KT P6SM OVC050